»·PEaware :: WAT3512 KNYL-KTUS

WAT3512 :: KNYL-KTUS

FLIGHT INFORMATION

Flight Status: Arrived
Operator:
Walker Air Transport
More flights by this operator :: More flights under this callsign
Pilot: Richard A. (43314)
Aircraft: BEECH AIRCRAFT SUPER KING AIR 350
(B350)
More flights by this aircraft type
Origin: KNYL Yuma MCAS/Yuma Intl
United States
Destination: KTUS Tucson Intl
United States
More flights between these airports :: More routes between these airports
Route: BZA V66 TUS
File this flight plan on PilotEdge
Remarks: RMK / SIMBRIEF
Altitude:
(Current/Filed)
17,000ft
Speed:
(Current/Filed)
313kts
Departed: 04-Jul-23 09:43 AM
Arrived: 04-Jul-23 10:42 AM
Distance/Time
Traveled:
188nm/0:58
Distance/Time
To Go:
Arrived

Flight Plot

Page will automatically refresh every two minutes.

Flight plan parsing failed; only flown route is shown


Map Options




Map Legend


Flown Route
Filed Route
Departure Airport
Arrival Airport
Navaid (VOR, NDB)
Fix

Horizontal Profiles

Position Reports

Time Latitude Longitude Heading Altitude Ground
Speed
04-Jul-23 08:55 32.667853 -114.599586 0 201ft 0kts
04-Jul-23 08:56 32.667853 -114.599586 0 201ft 0kts
04-Jul-23 08:57 32.667853 -114.599586 0 201ft 0kts
04-Jul-23 08:58 32.667853 -114.599586 0 201ft 0kts
04-Jul-23 08:59 32.667853 -114.599586 0 201ft 0kts
04-Jul-23 09:00 32.667853 -114.599586 0 201ft 0kts
04-Jul-23 09:01 32.667853 -114.599586 0 201ft 0kts
04-Jul-23 09:02 32.667853 -114.599586 0 201ft 0kts
04-Jul-23 09:03 32.667853 -114.599586 0 201ft 0kts
04-Jul-23 09:04 32.667853 -114.599586 0 201ft 0kts
04-Jul-23 09:05 32.667853 -114.599586 0 201ft 0kts
04-Jul-23 09:06 32.667853 -114.599586 0 201ft 0kts
04-Jul-23 09:07 32.667853 -114.599586 0 201ft 0kts
04-Jul-23 09:08 32.667853 -114.599586 0 201ft 0kts
04-Jul-23 09:09 32.667853 -114.599586 0 201ft 0kts
04-Jul-23 09:10 32.667853 -114.599586 0 201ft 0kts
04-Jul-23 09:11 32.667853 -114.599586 0 201ft 0kts
04-Jul-23 09:12 32.667853 -114.599586 0 201ft 0kts
04-Jul-23 09:13 32.667853 -114.599586 0 201ft 0kts
04-Jul-23 09:14 32.667853 -114.599586 0 201ft 0kts
04-Jul-23 09:15 32.667853 -114.599586 0 201ft 0kts
04-Jul-23 09:16 32.667853 -114.599586 0 201ft 0kts
04-Jul-23 09:17 32.667853 -114.599586 0 201ft 0kts
04-Jul-23 09:18 32.667853 -114.599586 0 201ft 0kts
04-Jul-23 09:19 32.667853 -114.599586 0 201ft 0kts
04-Jul-23 09:20 32.667853 -114.599586 0 201ft 0kts
04-Jul-23 09:21 32.667853 -114.599586 0 201ft 0kts
04-Jul-23 09:22 32.667853 -114.599586 0 201ft 0kts
04-Jul-23 09:23 32.667853 -114.599586 0 201ft 0kts
04-Jul-23 09:24 32.667853 -114.599586 0 201ft 0kts
04-Jul-23 09:25 32.667853 -114.599586 0 201ft 0kts
04-Jul-23 09:26 32.667853 -114.599586 0 201ft 0kts
04-Jul-23 09:27 32.667853 -114.599586 0 201ft 0kts
04-Jul-23 09:28 32.667853 -114.599586 0 201ft 0kts
04-Jul-23 09:29 32.667853 -114.599586 0 201ft 0kts
04-Jul-23 09:30 32.667853 -114.599586 0 201ft 0kts
04-Jul-23 09:31 32.667335 -114.599236 102 200ft 7kts
04-Jul-23 09:32 32.667311 -114.596611 89 205ft 8kts
04-Jul-23 09:33 32.667365 -114.593397 88 208ft 10kts
04-Jul-23 09:34 32.667363 -114.592915 92 209ft 0kts
04-Jul-23 09:35 32.667363 -114.592915 92 209ft 0kts
04-Jul-23 09:36 32.667363 -114.592915 92 209ft 0kts
04-Jul-23 09:37 32.667363 -114.592915 92 209ft 0kts
04-Jul-23 09:38 32.667363 -114.592915 92 209ft 0kts
04-Jul-23 09:39 32.667363 -114.592915 92 209ft 0kts
04-Jul-23 09:40 32.667365 -114.592496 88 210ft 5kts
04-Jul-23 09:41 32.666456 -114.592194 221 211ft 5kts
04-Jul-23 09:42 32.650420 -114.611965 223 798ft 140kts
04-Jul-23 09:43 32.624359 -114.648943 224 2695ft 157kts
04-Jul-23 09:44 32.597454 -114.690581 238 4417ft 165kts
04-Jul-23 09:45 32.620483 -114.727361 14 5984ft 183kts
04-Jul-23 09:47 32.661167 -114.695065 43 7432ft 177kts
04-Jul-23 09:48 32.700849 -114.658643 38 8598ft 188kts
04-Jul-23 09:49 32.743570 -114.624270 34 9871ft 188kts
04-Jul-23 09:50 32.768711 -114.577530 94 10985ft 179kts
04-Jul-23 09:51 32.769001 -114.517869 84 12105ft 185kts
04-Jul-23 09:52 32.770037 -114.455790 92 13294ft 188kts
04-Jul-23 09:53 32.770939 -114.393693 92 14377ft 188kts
04-Jul-23 09:54 32.771820 -114.331780 94 15397ft 187kts
04-Jul-23 09:55 32.772618 -114.269921 95 16350ft 188kts
04-Jul-23 09:56 32.773338 -114.207133 95 17036ft 201kts
04-Jul-23 09:57 32.774130 -114.135045 94 17029ft 233kts
04-Jul-23 09:58 32.774999 -114.054670 94 17022ft 251kts
04-Jul-23 09:59 32.776311 -113.969827 86 17008ft 264kts
04-Jul-23 10:00 32.788700 -113.882896 85 17019ft 269kts
04-Jul-23 10:01 32.801334 -113.794719 85 16972ft 272kts
04-Jul-23 10:02 32.814030 -113.705714 85 16977ft 273kts
04-Jul-23 10:03 32.826642 -113.616814 85 16990ft 272kts
04-Jul-23 10:04 32.839163 -113.528076 85 17004ft 272kts
04-Jul-23 10:05 32.851591 -113.439531 85 17006ft 271kts
04-Jul-23 10:06 32.863930 -113.351133 85 17006ft 269kts
04-Jul-23 10:07 32.876101 -113.263501 86 17010ft 270kts
04-Jul-23 10:08 32.888311 -113.175124 85 17010ft 271kts
04-Jul-23 10:09 32.900487 -113.086504 85 17009ft 271kts
04-Jul-23 10:10 32.912593 -112.997922 86 17008ft 272kts
04-Jul-23 10:11 32.924707 -112.908785 86 17009ft 275kts
04-Jul-23 10:12 32.936917 -112.818415 86 17009ft 279kts
04-Jul-23 10:13 32.949297 -112.726287 86 17011ft 283kts
04-Jul-23 10:14 32.939027 -112.639687 123 17013ft 267kts
04-Jul-23 10:14 32.908933 -112.575483 124 17010ft 268kts
04-Jul-23 10:16 32.865810 -112.485465 124 17010ft 268kts
04-Jul-23 10:17 32.828747 -112.408375 124 17009ft 269kts
04-Jul-23 10:18 32.791697 -112.331474 124 17008ft 269kts
04-Jul-23 10:19 32.754526 -112.254482 124 17024ft 268kts
04-Jul-23 10:20 32.717287 -112.177514 125 17044ft 269kts
04-Jul-23 10:21 32.680047 -112.100725 125 17065ft 269kts
04-Jul-23 10:22 32.642614 -112.023698 125 17072ft 270kts
04-Jul-23 10:22 32.611264 -111.959310 124 17071ft 270kts
04-Jul-23 10:23 32.573127 -111.881172 124 16637ft 281kts
04-Jul-23 10:24 32.534320 -111.801785 123 15496ft 276kts
04-Jul-23 10:26 32.489758 -111.710850 123 14208ft 273kts
04-Jul-23 10:26 32.458049 -111.646229 122 13282ft 269kts
04-Jul-23 10:27 32.422322 -111.573518 121 12115ft 240kts
04-Jul-23 10:28 32.390491 -111.509077 121 10986ft 216kts
04-Jul-23 10:29 32.372558 -111.448605 87 10608ft 205kts
04-Jul-23 10:30 32.376640 -111.379880 87 9319ft 206kts
04-Jul-23 10:31 32.356005 -111.322044 118 7858ft 186kts
04-Jul-23 10:32 32.331287 -111.270560 118 6490ft 171kts
04-Jul-23 10:33 32.305354 -111.225432 125 5976ft 165kts
04-Jul-23 10:34 32.278520 -111.180837 124 6016ft 168kts
04-Jul-23 10:35 32.254134 -111.135017 122 6059ft 170kts
04-Jul-23 10:36 32.230595 -111.086475 115 5883ft 178kts
04-Jul-23 10:37 32.204705 -111.042502 139 4733ft 145kts
04-Jul-23 10:38 32.176113 -111.010977 133 4108ft 137kts
04-Jul-23 10:39 32.148771 -110.977766 137 3383ft 141kts
04-Jul-23 10:40 32.121947 -110.946261 136 2602ft 129kts
04-Jul-23 10:41 32.108196 -110.930076 134 2626ft 29kts
04-Jul-23 10:42 32.109484 -110.929119 314 2629ft 12kts
04-Jul-23 10:43 32.112321 -110.932459 316 2620ft 16kts
04-Jul-23 10:44 32.115425 -110.936069 314 2610ft 15kts
04-Jul-23 10:45 32.118422 -110.939588 315 2600ft 14kts
04-Jul-23 10:46 32.121394 -110.943065 315 2588ft 15kts
04-Jul-23 10:47 32.124442 -110.946635 315 2575ft 11kts
04-Jul-23 10:48 32.126326 -110.945457 143 2572ft 5kts
04-Jul-23 10:49 32.125697 -110.945204 174 2574ft 0kts
04-Jul-23 10:50 32.125697 -110.945204 174 2574ft 0kts

Navigation Log

Ident Type
Flight plan parsing failed, navigation log unavailable